createdAt,value
2023-11-07T00:01:29.741Z,99092.78
2023-11-07T00:03:57.699Z,99096.16
2023-11-07T00:06:24.694Z,99098.72
2023-11-07T00:08:52.837Z,99100.16
2023-11-07T00:11:20.940Z,99091.06
2023-11-07T00:13:49.555Z,99095.25
2023-11-07T00:16:17.212Z,99091.25
2023-11-07T00:18:44.815Z,99097.34
2023-11-07T00:21:12.364Z,99098.97
2023-11-07T00:23:39.432Z,99101.59
2023-11-07T00:26:07.011Z,99103.19
2023-11-07T00:28:34.288Z,99102.50
2023-11-07T00:31:01.264Z,99103.19
2023-11-07T00:33:28.203Z,99104.38
2023-11-07T00:35:55.757Z,99106.31
2023-11-07T00:38:22.649Z,99114.53
2023-11-07T00:40:50.041Z,99111.16
2023-11-07T00:43:18.691Z,99106.03
2023-11-07T00:45:45.977Z,99123.97
2023-11-07T00:48:15.323Z,99130.09
2023-11-07T00:50:42.391Z,99132.78
2023-11-07T00:53:12.300Z,99127.66
2023-11-07T00:55:39.461Z,99123.50
2023-11-07T00:58:06.537Z,99117.06
2023-11-07T01:00:34.918Z,99124.84
2023-11-07T01:03:01.953Z,99121.50
2023-11-07T01:05:29.578Z,99131.34
2023-11-07T01:07:57.698Z,99136.78
2023-11-07T01:10:25.820Z,99139.13
2023-11-07T01:12:57.174Z,99150.13
2023-11-07T01:15:26.124Z,99146.84
2023-11-07T01:17:55.426Z,99135.22
2023-11-07T01:20:23.647Z,99145.53
2023-11-07T01:22:51.745Z,99142.09
2023-11-07T01:25:20.843Z,99142.63
2023-11-07T01:27:47.705Z,99140.31
2023-11-07T01:30:15.170Z,99139.75
2023-11-07T01:32:45.039Z,99136.63
2023-11-07T01:35:13.187Z,99146.59
2023-11-07T01:37:41.115Z,99149.88
2023-11-07T01:40:10.479Z,99152.59
2023-11-07T01:42:47.742Z,99143.28
2023-11-07T01:45:14.681Z,99144.53
2023-11-07T01:47:45.164Z,99146.59
2023-11-07T01:50:13.974Z,99147.75
2023-11-07T01:52:42.002Z,99146.84
2023-11-07T01:55:16.622Z,99146.41
2023-11-07T01:57:47.574Z,99148.50
2023-11-07T02:00:16.353Z,99152.66
2023-11-07T02:02:43.781Z,99154.97
2023-11-07T02:05:11.173Z,99157.53
2023-11-07T02:07:40.627Z,99165.31
2023-11-07T02:10:12.579Z,99165.06
2023-11-07T02:12:40.995Z,99170.94
2023-11-07T02:15:32.757Z,99166.00
2023-11-07T02:18:01.294Z,99178.03
2023-11-07T02:20:32.061Z,99166.47
2023-11-07T02:23:05.209Z,99179.38
2023-11-07T02:25:35.579Z,99171.63
2023-11-07T02:28:02.846Z,99168.19
2023-11-07T02:30:30.090Z,99181.13
2023-11-07T02:32:58.464Z,99179.03
2023-11-07T02:35:25.405Z,99186.06
2023-11-07T02:37:55.425Z,99206.34
2023-11-07T02:40:22.717Z,99201.50
2023-11-07T02:42:51.017Z,99200.41
2023-11-07T02:45:19.162Z,99194.34
2023-11-07T02:47:46.579Z,99186.81
2023-11-07T02:50:13.889Z,99203.03
2023-11-07T02:52:40.759Z,99199.47
2023-11-07T02:55:08.944Z,99197.13
2023-11-07T02:57:37.337Z,99208.88
2023-11-07T03:00:05.713Z,99210.25
2023-11-07T03:02:36.787Z,99201.69
2023-11-07T03:05:05.993Z,99196.53
2023-11-07T03:07:34.182Z,99200.91
2023-11-07T03:10:02.471Z,99208.13
2023-11-07T03:12:30.626Z,99201.47
2023-11-07T03:14:57.926Z,99202.69
2023-11-07T03:17:25.865Z,99204.47
2023-11-07T03:19:54.824Z,99214.28
2023-11-07T03:22:23.399Z,99210.06
2023-11-07T03:24:50.490Z,99212.81
2023-11-07T03:27:18.424Z,99214.91
2023-11-07T03:29:48.482Z,99204.94
2023-11-07T03:32:15.412Z,99203.94
2023-11-07T03:34:42.368Z,99197.97
2023-11-07T03:37:09.569Z,99202.09
2023-11-07T03:39:36.816Z,99203.34
2023-11-07T03:42:06.200Z,99200.56
2023-11-07T03:44:35.192Z,99204.53
2023-11-07T03:47:07.103Z,99204.16
2023-11-07T03:49:34.628Z,99208.38
2023-11-07T03:52:04.841Z,99210.56
2023-11-07T03:54:32.076Z,99215.81
2023-11-07T03:57:00.692Z,99213.19
2023-11-07T03:59:28.748Z,99223.88
2023-11-07T04:01:59.528Z,99234.84
2023-11-07T04:04:27.360Z,99227.19
2023-11-07T04:06:54.705Z,99226.75
2023-11-07T04:09:25.183Z,99226.25
2023-11-07T04:11:52.197Z,99230.84
2023-11-07T04:14:22.331Z,99228.34
2023-11-07T04:16:49.975Z,99226.75
2023-11-07T04:19:17.209Z,99237.34
2023-11-07T04:21:45.250Z,99240.97
2023-11-07T04:24:13.840Z,99241.44
2023-11-07T04:26:42.247Z,99256.19
2023-11-07T04:29:09.726Z,99262.56
2023-11-07T04:31:39.352Z,99273.22
2023-11-07T04:34:11.756Z,99281.72
2023-11-07T04:36:42.011Z,99276.53
2023-11-07T04:39:11.358Z,99280.25
2023-11-07T04:41:38.573Z,99285.56
2023-11-07T04:44:06.834Z,99294.31
2023-11-07T04:46:34.043Z,99298.00
2023-11-07T04:49:01.929Z,99283.03
2023-11-07T04:51:29.396Z,99287.16
2023-11-07T04:53:59.379Z,99290.19
2023-11-07T04:56:26.363Z,99284.69
2023-11-07T04:58:57.482Z,99300.03
2023-11-07T05:01:26.455Z,99299.25
2023-11-07T05:03:55.250Z,99304.69
2023-11-07T05:06:23.458Z,99316.94
2023-11-07T05:08:52.737Z,99317.59
2023-11-07T05:11:19.904Z,99317.13
2023-11-07T05:13:46.691Z,99313.28
2023-11-07T05:16:13.756Z,99319.06
2023-11-07T05:18:42.252Z,99315.59
2023-11-07T05:21:09.771Z,99302.59
2023-11-07T05:23:37.199Z,99321.75
2023-11-07T05:26:07.449Z,99317.75
2023-11-07T05:28:34.788Z,99320.38
2023-11-07T05:31:05.666Z,99319.66
2023-11-07T05:33:35.976Z,99324.00
2023-11-07T05:36:04.933Z,99327.50
2023-11-07T05:38:36.232Z,99327.72
2023-11-07T05:41:05.829Z,99320.75
2023-11-07T05:43:33.100Z,99321.84
2023-11-07T05:46:00.177Z,99321.47
2023-11-07T05:48:27.601Z,99331.38
2023-11-07T05:50:56.041Z,99331.22
2023-11-07T05:53:23.080Z,99335.06
2023-11-07T05:55:50.053Z,99333.34
2023-11-07T05:58:17.829Z,99324.66
2023-11-07T06:00:45.965Z,99331.44
2023-11-07T06:03:15.414Z,99327.19
2023-11-07T06:05:46.875Z,99331.66
2023-11-07T06:08:15.095Z,99330.53
2023-11-07T06:10:42.391Z,99333.25
2023-11-07T06:13:10.731Z,99339.59
2023-11-07T06:15:39.115Z,99344.44
2023-11-07T06:18:07.770Z,99339.19
2023-11-07T06:20:34.841Z,99343.66
2023-11-07T06:23:05.335Z,99340.84
2023-11-07T06:25:32.925Z,99347.72
2023-11-07T06:28:00.187Z,99351.75
2023-11-07T06:30:31.411Z,99358.59
2023-11-07T06:32:59.407Z,99356.84
2023-11-07T06:35:27.714Z,99353.22
2023-11-07T06:37:55.233Z,99353.06
2023-11-07T06:40:22.351Z,99361.22
2023-11-07T06:42:49.781Z,99366.91
2023-11-07T06:45:17.185Z,99367.66
2023-11-07T06:47:45.971Z,99376.91
2023-11-07T06:50:16.051Z,99374.44
2023-11-07T06:52:49.955Z,99372.63
2023-11-07T06:55:20.455Z,99382.88
2023-11-07T06:57:51.459Z,99392.81
2023-11-07T07:00:22.592Z,99389.50
2023-11-07T07:02:57.798Z,99388.78
2023-11-07T07:05:27.121Z,99387.03
2023-11-07T07:07:56.084Z,99390.84
2023-11-07T07:10:25.169Z,99391.56
2023-11-07T07:12:52.531Z,99389.69
2023-11-07T07:15:19.911Z,99398.31
2023-11-07T07:17:47.435Z,99403.47
2023-11-07T07:20:14.841Z,99402.97
2023-11-07T07:22:43.385Z,99404.19
2023-11-07T07:25:17.727Z,99402.66
2023-11-07T07:27:49.493Z,99407.38
2023-11-07T07:30:27.792Z,99410.16
2023-11-07T07:32:55.611Z,99402.88
2023-11-07T07:35:24.112Z,99400.69
2023-11-07T07:37:54.845Z,99408.63
2023-11-07T07:40:30.769Z,99402.88
2023-11-07T07:43:02.501Z,99409.69
2023-11-07T07:45:32.917Z,99411.47
2023-11-07T07:48:24.676Z,99421.13
2023-11-07T07:50:53.259Z,99416.34
2023-11-07T07:53:22.848Z,99416.28
2023-11-07T07:55:52.048Z,99419.94
2023-11-07T07:58:21.369Z,99417.56
2023-11-07T08:00:54.068Z,99423.41
2023-11-07T08:03:22.214Z,99418.75
2023-11-07T08:05:49.560Z,99432.00
2023-11-07T08:08:19.263Z,99426.91
2023-11-07T08:10:50.075Z,99432.84
2023-11-07T08:13:20.153Z,99434.72
2023-11-07T08:15:50.093Z,99438.34
2023-11-07T08:18:19.160Z,99438.50
2023-11-07T08:20:47.005Z,99428.84
2023-11-07T08:23:15.743Z,99440.16
2023-11-07T08:25:42.815Z,99434.28
2023-11-07T08:28:11.246Z,99434.66
2023-11-07T08:30:39.553Z,99437.25
2023-11-07T08:33:09.040Z,99440.06
2023-11-07T08:35:38.158Z,99445.38
2023-11-07T08:38:05.247Z,99446.03
2023-11-07T08:43:21.715Z,99441.75
2023-11-07T08:51:43.613Z,99432.94
2023-11-07T08:57:16.959Z,99427.19
2023-11-07T09:00:02.352Z,99430.44
2023-11-07T09:02:44.789Z,99434.56
2023-11-07T09:05:18.430Z,99434.72
2023-11-07T09:07:46.415Z,99436.97
2023-11-07T09:10:18.551Z,99447.88
2023-11-07T09:12:47.342Z,99441.34
2023-11-07T09:15:33.703Z,99445.75
2023-11-07T09:18:13.394Z,99460.78
2023-11-07T09:20:51.545Z,99448.13
2023-11-07T09:26:29.519Z,99441.66
2023-11-07T09:29:25.387Z,99443.81
2023-11-07T09:32:05.181Z,99439.75
2023-11-07T09:42:53.426Z,99436.34
2023-11-07T09:45:32.095Z,99443.03
2023-11-07T09:51:32.726Z,99441.94
2023-11-07T09:54:10.666Z,99443.78
2023-11-07T09:56:48.489Z,99440.91
2023-11-07T10:02:45.229Z,99450.84
2023-11-07T10:11:17.452Z,99451.13
2023-11-07T10:14:16.641Z,99459.94
2023-11-07T10:19:36.796Z,99433.28
2023-11-07T10:22:10.002Z,99433.47
2023-11-07T10:25:19.347Z,99429.84
2023-11-07T10:27:47.832Z,99424.03
2023-11-07T10:30:55.899Z,99423.66
2023-11-07T10:33:31.192Z,99428.47
2023-11-07T10:36:01.778Z,99422.22
2023-11-07T10:38:33.421Z,99419.38
2023-11-07T10:41:19.760Z,99422.59
2023-11-07T10:44:01.711Z,99416.50
2023-11-07T10:46:31.559Z,99416.31
2023-11-07T10:48:58.449Z,99416.31
2023-11-07T10:51:41.479Z,99423.28
2023-11-07T10:54:11.635Z,99412.72
2023-11-07T10:57:17.644Z,99417.66
2023-11-07T11:03:29.078Z,99406.81
2023-11-07T11:06:01.767Z,99407.03
2023-11-07T11:08:30.709Z,99413.47
2023-11-07T11:10:59.330Z,99406.56
2023-11-07T11:13:43.178Z,99401.19
2023-11-07T11:19:53.610Z,99389.84
2023-11-07T11:22:55.152Z,99400.56
2023-11-07T11:29:04.137Z,99395.28
2023-11-07T11:31:54.396Z,99379.19
2023-11-07T11:34:36.777Z,99387.13
2023-11-07T11:37:04.002Z,99380.69
2023-11-07T11:39:32.534Z,99381.53
2023-11-07T11:42:04.887Z,99369.78
2023-11-07T11:44:33.976Z,99369.47
2023-11-07T11:47:02.128Z,99376.66
2023-11-07T11:49:29.513Z,99376.16
2023-11-07T11:51:57.748Z,99372.31
2023-11-07T11:54:27.796Z,99380.97
2023-11-07T11:57:00.403Z,99375.97
2023-11-07T11:59:32.457Z,99380.38
2023-11-07T12:02:03.990Z,99378.00
2023-11-07T12:04:35.091Z,99386.66
2023-11-07T12:07:14.566Z,99394.50
2023-11-07T12:09:46.523Z,99386.69
2023-11-07T12:12:16.219Z,99383.28
2023-11-07T12:14:55.599Z,99380.59
2023-11-07T12:17:30.200Z,99374.25
2023-11-07T12:20:18.672Z,99372.91
2023-11-07T12:22:49.265Z,99380.16
2023-11-07T12:25:21.574Z,99379.00
2023-11-07T12:27:58.148Z,99377.84
2023-11-07T12:30:27.078Z,99371.19
2023-11-07T12:33:11.351Z,99373.09
2023-11-07T12:35:40.365Z,99365.41
2023-11-07T12:38:10.660Z,99369.50
2023-11-07T12:40:39.834Z,99364.75
2023-11-07T12:43:10.663Z,99352.69
2023-11-07T12:45:39.309Z,99357.25
2023-11-07T12:48:08.099Z,99349.88
2023-11-07T12:50:48.053Z,99341.03
2023-11-07T12:53:19.128Z,99329.94
2023-11-07T12:55:54.565Z,99331.50
2023-11-07T12:58:29.005Z,99332.22
2023-11-07T13:00:59.968Z,99332.13
2023-11-07T13:03:34.248Z,99336.38
2023-11-07T13:06:10.945Z,99345.78
2023-11-07T13:08:47.533Z,99339.66
2023-11-07T13:11:19.440Z,99335.09
2023-11-07T13:13:51.370Z,99336.03
2023-11-07T13:16:19.748Z,99341.91
2023-11-07T13:18:54.123Z,99340.31
2023-11-07T13:21:22.192Z,99343.00
2023-11-07T13:23:50.993Z,99344.56
2023-11-07T13:26:18.811Z,99345.63
2023-11-07T13:28:46.134Z,99355.31
2023-11-07T13:31:15.081Z,99357.88
2023-11-07T13:33:47.680Z,99358.50
2023-11-07T13:36:16.922Z,99362.19
2023-11-07T13:38:48.035Z,99355.00
2023-11-07T13:41:16.366Z,99352.03
2023-11-07T13:43:43.529Z,99355.25
2023-11-07T13:46:19.558Z,99347.47
2023-11-07T13:48:54.804Z,99349.91
2023-11-07T13:51:22.942Z,99356.69
2023-11-07T13:53:52.656Z,99344.91
2023-11-07T13:56:21.281Z,99346.91
2023-11-07T13:58:49.988Z,99351.50
2023-11-07T14:01:18.010Z,99353.34
2023-11-07T14:03:45.744Z,99353.28
2023-11-07T14:06:13.947Z,99347.81
2023-11-07T14:08:45.235Z,99348.41
2023-11-07T14:11:12.808Z,99353.03
2023-11-07T14:13:39.652Z,99354.19
2023-11-07T14:16:06.787Z,99345.81
2023-11-07T14:18:33.735Z,99338.94
2023-11-07T14:21:04.226Z,99344.19
2023-11-07T14:23:32.106Z,99352.56
2023-11-07T14:25:59.819Z,99343.13
2023-11-07T14:28:29.639Z,99340.00
2023-11-07T14:31:00.396Z,99333.72
2023-11-07T14:33:31.875Z,99329.16
2023-11-07T14:36:00.306Z,99332.03
2023-11-07T14:38:30.425Z,99321.53
2023-11-07T14:41:01.409Z,99326.28
2023-11-07T14:43:28.748Z,99314.91
2023-11-07T14:45:57.409Z,99323.41
2023-11-07T14:48:24.886Z,99318.25
2023-11-07T14:50:55.044Z,99321.69
2023-11-07T14:53:26.671Z,99310.72
2023-11-07T14:55:56.704Z,99309.31
2023-11-07T14:58:25.974Z,99310.16
2023-11-07T15:00:57.108Z,99313.72
2023-11-07T15:03:26.549Z,99312.88
2023-11-07T15:05:55.375Z,99310.22
2023-11-07T15:08:23.725Z,99305.22
2023-11-07T15:10:51.517Z,99307.03
2023-11-07T15:13:18.618Z,99302.84
2023-11-07T15:15:46.710Z,99301.22
2023-11-07T15:18:13.746Z,99303.13
2023-11-07T15:20:44.144Z,99296.09
2023-11-07T15:23:11.021Z,99307.03
2023-11-07T15:25:39.042Z,99311.22
2023-11-07T15:28:06.033Z,99316.91
2023-11-07T15:30:34.004Z,99316.13
2023-11-07T15:33:02.491Z,99319.31
2023-11-07T15:35:37.440Z,99311.16
2023-11-07T15:38:10.464Z,99318.13
2023-11-07T15:40:41.127Z,99321.09
2023-11-07T15:43:09.851Z,99311.75
2023-11-07T15:45:36.990Z,99316.81
2023-11-07T15:48:12.277Z,99307.41
2023-11-07T15:50:41.010Z,99311.34
2023-11-07T15:53:10.206Z,99315.09
2023-11-07T15:55:40.130Z,99315.19
2023-11-07T15:58:10.036Z,99310.53
2023-11-07T16:00:37.308Z,99316.75
2023-11-07T16:03:06.790Z,99314.84
2023-11-07T16:05:37.049Z,99317.41
2023-11-07T16:08:08.663Z,99321.66
2023-11-07T16:10:37.476Z,99320.69
2023-11-07T16:13:05.034Z,99324.38
2023-11-07T16:15:32.579Z,99321.94
2023-11-07T16:17:59.758Z,99330.38
2023-11-07T16:20:28.090Z,99326.09
2023-11-07T16:22:57.758Z,99328.94
2023-11-07T16:25:33.735Z,99322.81
2023-11-07T16:28:02.663Z,99328.56
2023-11-07T16:30:31.336Z,99329.47
2023-11-07T16:32:59.951Z,99323.38
2023-11-07T16:35:27.306Z,99333.59
2023-11-07T16:37:55.136Z,99326.16
2023-11-07T16:40:26.102Z,99324.72
2023-11-07T16:42:57.355Z,99321.34
2023-11-07T16:45:25.255Z,99322.69
2023-11-07T16:47:52.519Z,99323.53
2023-11-07T16:50:22.111Z,99328.06
2023-11-07T16:52:52.773Z,99324.28
2023-11-07T16:55:20.946Z,99317.41
2023-11-07T16:57:49.236Z,99315.69
2023-11-07T17:00:21.969Z,99315.66
2023-11-07T17:02:49.585Z,99316.84
2023-11-07T17:05:19.670Z,99322.41
2023-11-07T17:07:47.238Z,99328.59
2023-11-07T17:10:14.272Z,99328.47
2023-11-07T17:12:41.758Z,99316.38
2023-11-07T17:15:13.216Z,99321.41
2023-11-07T17:17:41.539Z,99325.94
2023-11-07T17:20:09.410Z,99325.91
2023-11-07T17:22:40.493Z,99327.59
2023-11-07T17:25:10.167Z,99326.75
2023-11-07T17:27:37.141Z,99325.06
2023-11-07T17:30:04.622Z,99324.22
2023-11-07T17:32:32.450Z,99321.19
2023-11-07T17:35:05.478Z,99308.06
2023-11-07T17:37:32.977Z,99314.38
2023-11-07T17:40:01.263Z,99309.72
2023-11-07T17:42:28.699Z,99319.50
2023-11-07T17:44:56.180Z,99321.66
2023-11-07T17:47:26.528Z,99307.09
2023-11-07T17:49:53.664Z,99321.09
2023-11-07T17:52:22.121Z,99313.41
2023-11-07T17:54:49.582Z,99311.53
2023-11-07T17:57:18.895Z,99313.53
2023-11-07T17:59:52.996Z,99316.66
2023-11-07T18:02:22.135Z,99310.38
2023-11-07T18:04:52.849Z,99316.03
2023-11-07T18:07:21.259Z,99317.69
2023-11-07T18:09:51.947Z,99317.00
2023-11-07T18:12:22.003Z,99327.38
2023-11-07T18:14:49.036Z,99316.31
2023-11-07T18:17:16.040Z,99317.13
2023-11-07T18:19:43.110Z,99318.91
2023-11-07T18:22:11.480Z,99315.59
2023-11-07T18:24:38.575Z,99319.72
2023-11-07T18:27:06.294Z,99316.44
2023-11-07T18:29:33.250Z,99319.19
2023-11-07T18:32:02.604Z,99314.03
2023-11-07T18:34:30.012Z,99316.00
2023-11-07T18:37:05.042Z,99310.53
2023-11-07T18:39:37.657Z,99311.44
2023-11-07T18:42:05.315Z,99315.47
2023-11-07T18:44:37.140Z,99308.31
2023-11-07T18:47:05.176Z,99310.09
2023-11-07T18:49:33.213Z,99305.13
2023-11-07T18:52:01.733Z,99308.44
2023-11-07T18:54:29.765Z,99315.31
2023-11-07T18:56:58.968Z,99303.66
2023-11-07T18:59:34.332Z,99303.31
2023-11-07T19:02:08.010Z,99307.38
2023-11-07T19:04:38.108Z,99315.44
2023-11-07T19:07:09.455Z,99312.34
2023-11-07T19:09:37.112Z,99311.50
2023-11-07T19:12:07.973Z,99316.66
2023-11-07T19:14:39.750Z,99324.47
2023-11-07T19:17:08.972Z,99321.81
2023-11-07T19:19:37.135Z,99313.75
2023-11-07T19:22:05.383Z,99320.81
2023-11-07T19:24:33.312Z,99321.53
2023-11-07T19:27:00.398Z,99325.88
2023-11-07T19:29:27.965Z,99319.00
2023-11-07T19:31:55.442Z,99325.88
2023-11-07T19:34:23.579Z,99329.44
2023-11-07T19:36:54.176Z,99327.75
2023-11-07T19:39:22.156Z,99332.75
2023-11-07T19:41:49.510Z,99326.84
2023-11-07T19:44:18.628Z,99325.06
2023-11-07T19:46:45.507Z,99321.75
2023-11-07T19:49:12.517Z,99326.00
2023-11-07T19:51:41.236Z,99322.13
2023-11-07T19:54:10.423Z,99327.03
2023-11-07T19:56:44.620Z,99320.06
2023-11-07T19:59:13.399Z,99328.63
2023-11-07T20:01:40.970Z,99326.09
2023-11-07T20:04:10.318Z,99328.13
2023-11-07T20:06:38.143Z,99329.19
2023-11-07T20:09:07.056Z,99328.44
2023-11-07T20:11:36.436Z,99330.59
2023-11-07T20:14:03.753Z,99330.78
2023-11-07T20:16:33.818Z,99333.41
2023-11-07T20:19:03.785Z,99324.72
2023-11-07T20:21:31.602Z,99326.53
2023-11-07T20:23:58.955Z,99321.38
2023-11-07T20:26:26.217Z,99324.81
2023-11-07T20:28:53.308Z,99321.28
2023-11-07T20:31:21.365Z,99328.38
2023-11-07T20:33:50.675Z,99326.53
2023-11-07T20:36:20.146Z,99319.66
2023-11-07T20:38:54.626Z,99323.41
2023-11-07T20:41:22.004Z,99324.44
2023-11-07T20:43:51.377Z,99319.91
2023-11-07T20:48:53.092Z,99326.13
2023-11-07T20:51:21.444Z,99325.03
2023-11-07T20:53:48.300Z,99321.72
2023-11-07T20:56:15.492Z,99321.72
2023-11-07T20:58:42.992Z,99313.16
2023-11-07T21:01:10.379Z,99319.06
2023-11-07T21:03:38.459Z,99319.56
2023-11-07T21:06:06.753Z,99312.63
2023-11-07T21:08:33.728Z,99320.41
2023-11-07T21:11:01.820Z,99313.38
2023-11-07T21:13:30.933Z,99315.56
2023-11-07T21:15:59.978Z,99308.06
2023-11-07T21:18:26.852Z,99305.69
2023-11-07T21:20:54.611Z,99312.94
2023-11-07T21:23:23.304Z,99304.47
2023-11-07T21:25:51.036Z,99304.56
2023-11-07T21:28:18.220Z,99305.81
2023-11-07T21:30:45.602Z,99297.28
2023-11-07T21:33:12.829Z,99297.19
2023-11-07T21:35:40.301Z,99297.50
2023-11-07T21:38:07.731Z,99288.25
2023-11-07T21:40:41.201Z,99300.00
2023-11-07T21:43:12.268Z,99291.00
2023-11-07T21:45:39.590Z,99285.75
2023-11-07T21:48:07.259Z,99287.34
2023-11-07T21:50:34.605Z,99293.47
2023-11-07T21:53:03.038Z,99279.63
2023-11-07T21:55:30.462Z,99284.41
2023-11-07T21:57:57.429Z,99289.22
2023-11-07T22:00:24.496Z,99286.38
2023-11-07T22:02:51.521Z,99284.34
2023-11-07T22:05:20.668Z,99285.34
2023-11-07T22:07:47.856Z,99295.06
2023-11-07T22:10:17.460Z,99295.44
2023-11-07T22:12:45.226Z,99295.06
2023-11-07T22:15:14.308Z,99299.16
2023-11-07T22:17:44.811Z,99308.41
2023-11-07T22:20:15.672Z,99303.06
2023-11-07T22:22:44.961Z,99299.56
2023-11-07T22:25:12.325Z,99297.22
2023-11-07T22:27:40.832Z,99298.75
2023-11-07T22:30:11.553Z,99289.63
2023-11-07T22:32:41.706Z,99288.41
2023-11-07T22:35:11.062Z,99290.88
2023-11-07T22:37:39.086Z,99291.22
2023-11-07T22:40:10.654Z,99289.38
2023-11-07T22:42:41.936Z,99283.06
2023-11-07T22:45:11.908Z,99283.00
2023-11-07T22:47:40.278Z,99275.16
2023-11-07T22:50:08.416Z,99283.00
2023-11-07T22:52:35.657Z,99278.78
2023-11-07T22:55:02.629Z,99280.41
2023-11-07T22:57:35.249Z,99277.84
2023-11-07T23:00:03.304Z,99273.56
2023-11-07T23:02:32.078Z,99272.03
2023-11-07T23:05:02.354Z,99274.00
2023-11-07T23:07:29.572Z,99281.22
2023-11-07T23:09:59.513Z,99279.69
2023-11-07T23:12:27.679Z,99263.81
2023-11-07T23:14:54.905Z,99274.81
2023-11-07T23:17:21.997Z,99275.88
2023-11-07T23:19:49.974Z,99267.44
2023-11-07T23:22:16.866Z,99269.16
2023-11-07T23:24:43.877Z,99274.66
2023-11-07T23:27:15.691Z,99272.38
2023-11-07T23:29:45.826Z,99270.56
2023-11-07T23:32:12.858Z,99272.16
2023-11-07T23:34:41.316Z,99265.50
2023-11-07T23:37:09.746Z,99267.19
2023-11-07T23:39:36.653Z,99264.31
2023-11-07T23:42:03.897Z,99265.56
2023-11-07T23:44:33.349Z,99263.34
2023-11-07T23:47:04.707Z,99262.94
2023-11-07T23:49:32.877Z,99263.00
2023-11-07T23:51:59.769Z,99255.44
2023-11-07T23:54:26.769Z,99264.84
2023-11-07T23:56:54.785Z,99263.41
2023-11-07T23:59:21.757Z,99256.56
